sensor_id;sensor_type;location;lat;lon;timestamp;pressure;altitude;pressure_sealevel;temperature;humidity
71903;BME280;59778;50.310;18.780;2023-05-23T00:00:24;98402.25;;;14.23;71.05
71903;BME280;59778;50.310;18.780;2023-05-23T00:15:56;98393.03;;;14.05;72.27
71903;BME280;59778;50.310;18.780;2023-05-23T00:31:17;98383.25;;;13.55;75.46
71903;BME280;59778;50.310;18.780;2023-05-23T00:46:39;98392.34;;;13.17;77.60
71903;BME280;59778;50.310;18.780;2023-05-23T01:02:03;98387.38;;;13.01;78.14
71903;BME280;59778;50.310;18.780;2023-05-23T01:17:33;98389.97;;;12.58;79.46
71903;BME280;59778;50.310;18.780;2023-05-23T01:33:02;98384.63;;;12.32;80.81
71903;BME280;59778;50.310;18.780;2023-05-23T01:48:25;98385.34;;;12.08;82.65
71903;BME280;59778;50.310;18.780;2023-05-23T02:03:47;98382.91;;;11.80;84.18
71903;BME280;59778;50.310;18.780;2023-05-23T02:19:09;98373.50;;;11.56;83.79
71903;BME280;59778;50.310;18.780;2023-05-23T02:34:30;98373.94;;;11.14;87.13
71903;BME280;59778;50.310;18.780;2023-05-23T02:49:52;98368.81;;;10.52;91.54
71903;BME280;59778;50.310;18.780;2023-05-23T03:05:13;98363.22;;;10.66;89.05
71903;BME280;59778;50.310;18.780;2023-05-23T03:20:34;98356.13;;;10.65;89.39
71903;BME280;59778;50.310;18.780;2023-05-23T03:35:55;98339.81;;;10.72;89.33
71903;BME280;59778;50.310;18.780;2023-05-23T03:51:17;98340.69;;;11.05;89.20
71903;BME280;59778;50.310;18.780;2023-05-23T04:06:38;98345.28;;;11.44;89.33
71903;BME280;59778;50.310;18.780;2023-05-23T04:22:00;98340.34;;;11.99;89.47
71903;BME280;59778;50.310;18.780;2023-05-23T04:37:21;98331.50;;;12.16;92.33
71903;BME280;59778;50.310;18.780;2023-05-23T04:52:45;98322.91;;;12.89;88.92
71903;BME280;59778;50.310;18.780;2023-05-23T05:08:06;98317.13;;;13.53;85.81
71903;BME280;59778;50.310;18.780;2023-05-23T05:23:29;98303.34;;;14.21;82.36
71903;BME280;59778;50.310;18.780;2023-05-23T05:38:51;98307.53;;;14.83;78.44
71903;BME280;59778;50.310;18.780;2023-05-23T05:54:13;98316.78;;;15.35;75.63
71903;BME280;59778;50.310;18.780;2023-05-23T06:09:34;98306.56;;;15.65;75.44
71903;BME280;59778;50.310;18.780;2023-05-23T06:24:56;98304.25;;;16.48;74.54
71903;BME280;59778;50.310;18.780;2023-05-23T06:40:17;98287.38;;;17.13;70.06
71903;BME280;59778;50.310;18.780;2023-05-23T06:55:38;98267.63;;;17.66;69.44
71903;BME280;59778;50.310;18.780;2023-05-23T07:11:00;98267.25;;;18.66;67.18
71903;BME280;59778;50.310;18.780;2023-05-23T07:26:21;98255.94;;;19.58;63.47
71903;BME280;59778;50.310;18.780;2023-05-23T07:41:43;98241.41;;;20.25;60.99
71903;BME280;59778;50.310;18.780;2023-05-23T07:57:04;98236.91;;;21.11;60.66
71903;BME280;59778;50.310;18.780;2023-05-23T08:12:27;98236.06;;;20.86;57.13
71903;BME280;59778;50.310;18.780;2023-05-23T08:27:48;98226.91;;;21.66;56.42
71903;BME280;59778;50.310;18.780;2023-05-23T08:43:09;98219.78;;;22.34;51.32
71903;BME280;59778;50.310;18.780;2023-05-23T08:58:34;98222.91;;;22.67;48.04
71903;BME280;59778;50.310;18.780;2023-05-23T09:13:55;98223.84;;;23.30;46.66
71903;BME280;59778;50.310;18.780;2023-05-23T09:29:18;98225.03;;;23.81;44.41
71903;BME280;59778;50.310;18.780;2023-05-23T09:44:40;98212.84;;;24.67;45.56
71903;BME280;59778;50.310;18.780;2023-05-23T10:00:06;98191.00;;;24.61;45.01
71903;BME280;59778;50.310;18.780;2023-05-23T10:15:37;98172.72;;;25.11;43.65
71903;BME280;59778;50.310;18.780;2023-05-23T10:30:59;98162.97;;;25.73;40.39
71903;BME280;59778;50.310;18.780;2023-05-23T10:46:20;98153.00;;;26.27;41.93
71903;BME280;59778;50.310;18.780;2023-05-23T11:01:42;98162.47;;;25.98;37.66
71903;BME280;59778;50.310;18.780;2023-05-23T11:17:18;98143.94;;;26.93;38.95
71903;BME280;59778;50.310;18.780;2023-05-23T11:32:50;98117.28;;;27.31;38.87
71903;BME280;59778;50.310;18.780;2023-05-23T11:48:15;98113.72;;;25.73;40.74
71903;BME280;59778;50.310;18.780;2023-05-23T12:19:07;98245.19;;;18.61;84.95
71903;BME280;59778;50.310;18.780;2023-05-23T12:34:29;98234.28;;;16.91;96.74
71903;BME280;59778;50.310;18.780;2023-05-23T12:49:50;98202.31;;;16.51;100.00
71903;BME280;59778;50.310;18.780;2023-05-23T13:05:12;98191.00;;;16.76;100.00
71903;BME280;59778;50.310;18.780;2023-05-23T13:20:33;98159.06;;;17.42;100.00
71903;BME280;59778;50.310;18.780;2023-05-23T13:35:55;98160.81;;;17.92;100.00
71903;BME280;59778;50.310;18.780;2023-05-23T13:51:17;98144.66;;;18.22;100.00
71903;BME280;59778;50.310;18.780;2023-05-23T14:06:38;98167.66;;;19.01;95.57
71903;BME280;59778;50.310;18.780;2023-05-23T14:21:59;98164.72;;;19.13;97.65
71903;BME280;59778;50.310;18.780;2023-05-23T14:37:21;98157.69;;;18.90;100.00
71903;BME280;59778;50.310;18.780;2023-05-23T14:52:42;98201.19;;;18.93;100.00
71903;BME280;59778;50.310;18.780;2023-05-23T15:08:04;98190.41;;;18.87;100.00
71903;BME280;59778;50.310;18.780;2023-05-23T15:23:25;98191.59;;;19.01;100.00
71903;BME280;59778;50.310;18.780;2023-05-23T15:38:46;98190.91;;;19.15;100.00
71903;BME280;59778;50.310;18.780;2023-05-23T15:54:08;98203.94;;;18.93;100.00
71903;BME280;59778;50.310;18.780;2023-05-23T16:09:29;98191.75;;;19.16;99.83
71903;BME280;59778;50.310;18.780;2023-05-23T16:24:50;98196.22;;;19.27;99.90
71903;BME280;59778;50.310;18.780;2023-05-23T16:40:12;98185.09;;;19.12;97.50
71903;BME280;59778;50.310;18.780;2023-05-23T16:55:33;98174.84;;;19.02;94.55
71903;BME280;59778;50.310;18.780;2023-05-23T17:10:55;98193.66;;;19.20;89.22
71903;BME280;59778;50.310;18.780;2023-05-23T17:26:17;98190.31;;;19.13;91.15
71903;BME280;59778;50.310;18.780;2023-05-23T17:41:38;98198.59;;;19.13;93.54
71903;BME280;59778;50.310;18.780;2023-05-23T17:56:59;98198.16;;;18.95;98.64
71903;BME280;59778;50.310;18.780;2023-05-23T18:12:22;98217.06;;;18.54;100.00
71903;BME280;59778;50.310;18.780;2023-05-23T18:27:43;98233.13;;;18.41;100.00
71903;BME280;59778;50.310;18.780;2023-05-23T18:43:05;98248.56;;;18.20;100.00
71903;BME280;59778;50.310;18.780;2023-05-23T18:58:26;98264.53;;;18.01;100.00
71903;BME280;59778;50.310;18.780;2023-05-23T19:13:48;98260.41;;;17.82;100.00
71903;BME280;59778;50.310;18.780;2023-05-23T19:29:10;98274.84;;;17.72;100.00
71903;BME280;59778;50.310;18.780;2023-05-23T19:44:31;98280.84;;;17.53;100.00
71903;BME280;59778;50.310;18.780;2023-05-23T19:59:53;98292.41;;;17.55;100.00
71903;BME280;59778;50.310;18.780;2023-05-23T20:15:15;98292.81;;;17.47;100.00
71903;BME280;59778;50.310;18.780;2023-05-23T20:30:38;98303.91;;;17.35;100.00
71903;BME280;59778;50.310;18.780;2023-05-23T20:45:59;98327.53;;;17.19;100.00
71903;BME280;59778;50.310;18.780;2023-05-23T21:01:21;98336.25;;;17.16;100.00
71903;BME280;59778;50.310;18.780;2023-05-23T21:16:44;98335.16;;;17.01;100.00
71903;BME280;59778;50.310;18.780;2023-05-23T21:32:05;98335.94;;;17.13;100.00
71903;BME280;59778;50.310;18.780;2023-05-23T21:47:26;98357.31;;;16.82;100.00
71903;BME280;59778;50.310;18.780;2023-05-23T22:02:47;98359.19;;;16.65;100.00
71903;BME280;59778;50.310;18.780;2023-05-23T22:18:09;98366.22;;;16.61;100.00
71903;BME280;59778;50.310;18.780;2023-05-23T22:33:33;98381.69;;;16.56;100.00
71903;BME280;59778;50.310;18.780;2023-05-23T22:48:54;98385.75;;;16.65;100.00
71903;BME280;59778;50.310;18.780;2023-05-23T23:04:16;98370.25;;;16.70;100.00
71903;BME280;59778;50.310;18.780;2023-05-23T23:19:38;98381.84;;;16.49;100.00
71903;BME280;59778;50.310;18.780;2023-05-23T23:35:00;98365.81;;;16.29;100.00
71903;BME280;59778;50.310;18.780;2023-05-23T23:50:21;98377.63;;;16.18;100.00
